Christiana — WDD5937 — position and weather

sailwx.info

Track history (hours):
 
Tides and Currents Weather Stations Pressure Air Temp Water Temp Dewpoint Dewpoint Depression Visibility Wind Speed Wind Dir Waves Ship Positions

Christiana

Owner: Christiana, Philadelphia, PA. More information available from US FCC via Universal Licensing System and Coast Guard Vessel Documentation Center.

Last reported at 2018-Apr-18 16:05 UTC. Time now 2018-Apr-25 06:51 UTC.
Position N 27°53' W 092°03'.

Length 172 m; draft 8.4 m.

Type: Tanker. MMSI: 367165980.

Date/timePositionNaut miles runAvg speedWind from/ knotsBaromVisibWave heightAir tempDewpointWater temp
2018-Apr-18 16:05N 27°53' W 092°03'53 9.0
2018-Apr-18 10:13N 28°15' W 092°57'4 9.8
2018-Apr-18 09:51N 28°17' W 093°01'4 9.8
2018-Apr-18 09:23N 28°20' W 093°05'4 9.7
2018-Apr-18 09:00N 28°22' W 093°08'5 9.7
2018-Apr-18 08:31N 28°25' W 093°13'5 9.8
2018-Apr-18 08:00N 28°28' W 093°17'5 9.8
2018-Apr-18 07:30N 28°31' W 093°22'5 9.8
2018-Apr-18 07:00N 28°34' W 093°26'5 9.8
2018-Apr-18 06:27N 28°37' W 093°31'8 9.6
2018-Apr-18 05:39N 28°41' W 093°39'2 9.4
2018-Apr-18 05:24N 28°42' W 093°41'4 9.4
2018-Apr-18 04:57N 28°45' W 093°45'4 9.5
2018-Apr-18 04:31N 28°47' W 093°49'5 9.7
2018-Apr-18 04:00N 28°50' W 093°53'5 9.9
2018-Apr-18 03:30N 28°53' W 093°58'5 9.9
2018-Apr-18 02:59N 28°56' W 094°03'5 9.9
2018-Apr-18 02:30N 28°58' W 094°07'5 9.9
2018-Apr-18 02:00N 29°01' W 094°12'5 9.8
2018-Apr-18 01:29N 29°04' W 094°17'5 9.9
2018-Apr-18 01:01N 29°07' W 094°21'5 9.6
2018-Apr-18 00:30N 29°09' W 094°26'5 9.8
2018-Apr-18 00:01N 29°12' W 094°30'510.0
2018-Apr-17 23:30N 29°15' W 094°35'510.0
2018-Apr-17 23:00N 29°19' W 094°38'5 9.7
2018-Apr-17 22:27N 29°21' W 094°44'4 9.1
2018-Apr-17 22:00N 29°23' W 094°48'510.0
2018-Apr-17 21:30N 29°27' W 094°51'510.2
2018-Apr-17 21:00N 29°32' W 094°54'5 9.6
2018-Apr-17 20:30N 29°36' W 094°57'5 9.1
2018-Apr-17 20:00N 29°40' W 094°58'4 8.2
2018-Apr-17 19:30N 29°43' W 095°01'2 0.2
2018-Apr-17 10:55N 29°44' W 095°03'0 0.0
2018-Apr-17 09:22N 29°44' W 095°03'0 0.0
2018-Apr-17 08:58N 29°44' W 095°03'0 0.0
2018-Apr-17 08:28N 29°44' W 095°03'0 0.0
2018-Apr-17 07:49N 29°44' W 095°03'0 0.0
2018-Apr-17 07:19N 29°44' W 095°03'0 0.0
2018-Apr-17 06:16N 29°44' W 095°03'0 0.0
2018-Apr-17 05:55N 29°44' W 095°03'0 0.0
2018-Apr-17 05:22N 29°44' W 095°03'0 0.0
2018-Apr-17 04:52N 29°44' W 095°03'0 0.0
2018-Apr-15 04:37N 29°44' W 095°03'0 0.0
2018-Apr-15 04:30N 29°44' W 095°03'1 1.7
2018-Apr-15 04:00N 29°44' W 095°02'3 6.6
2018-Apr-15 03:31N 29°42' W 094°59'5 9.5
2018-Apr-15 03:00N 29°37' W 094°57'4 8.8
2018-Apr-15 02:30N 29°33' W 094°55'4 9.0
2018-Apr-15 02:00N 29°30' W 094°52'5 9.6
2018-Apr-15 01:30N 29°25' W 094°50'6 1.4
2018-Apr-14 21:14N 29°21' W 094°45'74 9.3
2018-Apr-14 13:19N 28°40' W 093°35'4 9.7
2018-Apr-14 12:56N 28°38' W 093°32'  
Track history (hours):
 
Tides and Currents Weather Stations Pressure Air Temp Water Temp Dewpoint Dewpoint Depression Visibility Wind Speed Wind Dir Waves Ship Positions

Christiana

Owner: Christiana, Philadelphia, PA. More information available from US FCC via Universal Licensing System and Coast Guard Vessel Documentation Center.

Last reported at 2018-Apr-18 16:05 UTC. Time now 2018-Apr-25 06:51 UTC.
Position N 27°53' W 092°03'.

Length 172 m; draft 8.4 m.

Type: Tanker. MMSI: 367165980.

Date/timePositionNaut miles runAvg speedWind from/ knotsBaromVisibWave heightAir tempDewpointWater temp
2018-Apr-18 16:05N 27°53' W 092°03'53 9.0
2018-Apr-18 10:13N 28°15' W 092°57'4 9.8
2018-Apr-18 09:51N 28°17' W 093°01'4 9.8
2018-Apr-18 09:23N 28°20' W 093°05'4 9.7
2018-Apr-18 09:00N 28°22' W 093°08'5 9.7
2018-Apr-18 08:31N 28°25' W 093°13'5 9.8
2018-Apr-18 08:00N 28°28' W 093°17'5 9.8
2018-Apr-18 07:30N 28°31' W 093°22'5 9.8
2018-Apr-18 07:00N 28°34' W 093°26'5 9.8
2018-Apr-18 06:27N 28°37' W 093°31'8 9.6
2018-Apr-18 05:39N 28°41' W 093°39'2 9.4
2018-Apr-18 05:24N 28°42' W 093°41'4 9.4
2018-Apr-18 04:57N 28°45' W 093°45'4 9.5
2018-Apr-18 04:31N 28°47' W 093°49'5 9.7
2018-Apr-18 04:00N 28°50' W 093°53'5 9.9
2018-Apr-18 03:30N 28°53' W 093°58'5 9.9
2018-Apr-18 02:59N 28°56' W 094°03'5 9.9
2018-Apr-18 02:30N 28°58' W 094°07'5 9.9
2018-Apr-18 02:00N 29°01' W 094°12'5 9.8
2018-Apr-18 01:29N 29°04' W 094°17'5 9.9
2018-Apr-18 01:01N 29°07' W 094°21'5 9.6
2018-Apr-18 00:30N 29°09' W 094°26'5 9.8
2018-Apr-18 00:01N 29°12' W 094°30'510.0
2018-Apr-17 23:30N 29°15' W 094°35'510.0
2018-Apr-17 23:00N 29°19' W 094°38'5 9.7
2018-Apr-17 22:27N 29°21' W 094°44'4 9.1
2018-Apr-17 22:00N 29°23' W 094°48'510.0
2018-Apr-17 21:30N 29°27' W 094°51'510.2
2018-Apr-17 21:00N 29°32' W 094°54'5 9.6
2018-Apr-17 20:30N 29°36' W 094°57'5 9.1
2018-Apr-17 20:00N 29°40' W 094°58'4 8.2
2018-Apr-17 19:30N 29°43' W 095°01'2 0.2
2018-Apr-17 10:55N 29°44' W 095°03'0 0.0
2018-Apr-17 09:22N 29°44' W 095°03'0 0.0
2018-Apr-17 08:58N 29°44' W 095°03'0 0.0
2018-Apr-17 08:28N 29°44' W 095°03'0 0.0
2018-Apr-17 07:49N 29°44' W 095°03'0 0.0
2018-Apr-17 07:19N 29°44' W 095°03'0 0.0
2018-Apr-17 06:16N 29°44' W 095°03'0 0.0
2018-Apr-17 05:55N 29°44' W 095°03'0 0.0
2018-Apr-17 05:22N 29°44' W 095°03'0 0.0
2018-Apr-17 04:52N 29°44' W 095°03'0 0.0
2018-Apr-15 04:37N 29°44' W 095°03'0 0.0
2018-Apr-15 04:30N 29°44' W 095°03'1 1.7
2018-Apr-15 04:00N 29°44' W 095°02'3 6.6
2018-Apr-15 03:31N 29°42' W 094°59'5 9.5
2018-Apr-15 03:00N 29°37' W 094°57'4 8.8
2018-Apr-15 02:30N 29°33' W 094°55'4 9.0
2018-Apr-15 02:00N 29°30' W 094°52'5 9.6
2018-Apr-15 01:30N 29°25' W 094°50'6 1.4
2018-Apr-14 21:14N 29°21' W 094°45'74 9.3
2018-Apr-14 13:19N 28°40' W 093°35'4 9.7
2018-Apr-14 12:56N 28°38' W 093°32'  

Dump ship's entire track history